Alton, UT

6:12 PM MDT on July 04, 2015 (GMT -0600)
Swains Creek | | Change Station
CLOSE
Current Station
Personal Weather Station
Location: Swains Creek, UT
Elevation: 7990 ft
Nearby Weather Stations

Elev 7990 ft 37.48 °N, 112.61 °W | Updated 52 minutes ago

Partly Cloudy
Partly Cloudy
74.7 °F
Feels Like 77 °F
N
0.0
Wind Variable Wind from West
Gusts 12.5 mph

Today
High -- | Low -- °F
--% Chance of Precip.
Yesterday
High -- | Low -- °F
Precip. -- in
6:14 AM 8:54 PM
Waning Gibbous, 89% visible
Pressure 29.86 in
Visibility 9.0 miles
Clouds Mostly Cloudy 6000 ft
Overcast 9500 ft
Heat Index 77 °F
Dew Point 46 °F
Humidity 36%
Rainfall 0.00 in
Snow Depth Not available.
UV 1 out of 12
Pollen 4.60 out of 12
Air Quality Not available.
Flu Activity Not available.
METAR KBCE 042353Z AUTO 00000KT 9SM -RA BKN060 OVC095 21/12 A3022 RMK AO2 RAB35 SLP109 P0000 60000 T02110122 10256 20211 56011

More Conditions Fewer Conditions

Pressure 29.86 in
Visibility 9.0 miles
Clouds Mostly Cloudy 6000 ft
Overcast 9500 ft
Heat Index 77 °F
Dew Point 46 °F
Humidity 36%
Rainfall 0.00 in
Snow Depth Not available.
UV 1 out of 12
Pollen 4.60 out of 12
Air Quality Not available.
Flu Activity Not available.
METAR KBCE 042353Z AUTO 00000KT 9SM -RA BKN060 OVC095 21/12 A3022 RMK AO2 RAB35 SLP109 P0000 60000 T02110122 10256 20211 56011

More Conditions Fewer Conditions

Nowcast | as of 5:20 PM MDT on July 4, 2015

Scattered showers and isolated thunderstorms will continue over portions of southern and central Utah this evening. The strongest storms at 510 PM were located near Bryce Canyon National Park...and southwest of Panguitch. Some of these storms will produce locally heavy rain...small hail...dangerous lightning...and gusty winds.

×

10-Day Weather Forecast

×

Almanac

Astronomy

Jul. 04, 2015 Rise Set
Actual Time
Civil Twilight
Nautical Twilight
Astronomical Twilight
Moon
Length of Visible Light
Length of Day
Tomorrow will be .
, % of the Moon is Illuminated

Today's Extremes

State Highs State Lows

Community

WunderPhotos

Upload Photos

1,835,119 photos uploaded!

WunderBlogs® & News

Nearby

Air Quality

  Air Quality AQ Index Pollutant
Not available.

Snow Depth

Station Depth Elevation

Earthquake Activity

City Distance Mag. Time & Date
Minimum magnitude displayed is 2.5.

Coastal Water Temperatures

Place Temperature

Stations

Nearby Weather Stations

Station Location Temp. Windchill Dew Point Humidity Wind Precip. Elev Updated Type